Ceuta, Spain
Current Conditions -  °F | °C
As of 3:50 PM on Wednesday 22 Oct 2014 (Local Time) from LXGB Reporting Station
Clear Clear  
Wind Chill: 90°   Ceiling: Unl
Heat Index: 90°   Visibility: 6mi
Dew Point: 41°   Wind: 10mph
Humidity: 18%   Direction: 200°SSW
Pressure: 30.09"   Gusts: NA
Location:  35.89°N, 5.32°W
Report Text: LXGB 221350Z 20009KT CAVOK 32/05 Q1019 NOSIG
Loading
Personal Weather Stations






























Interactive Weather Map
Tropical Storm Tracking
New forecast layout! Learn more

10-Day Weather Forecast

Advertisements
Track Severe Weather on mobile